N98668 KISM-KISM
Flight info
| Callsign | N98668 |
|---|---|
| Flight time | 0h 3m |
| Altitude | VFR |
| Route | PATTERN |
| Aircraft | C182/L-VGD/C |
Departure
| Time | 2026-05-05 01:12 |
|---|---|
| Airport | Kissimmee Gateway Airport (KISM) |
Arrival
| Time | 2026-05-05 01:15 |
|---|---|
| Airport | Kissimmee Gateway Airport (KISM) |
| Time | Latitude | Longitude | Altitude | Speed | Heading |
|---|---|---|---|---|---|
| 2026-05-05 01:09 | 28.29511 | -81.44244 | 90 ft | 7 kts | 285° |
| 2026-05-05 01:09 | 28.29519 | -81.44290 | 93 ft | 5 kts | 311° |
| 2026-05-05 01:09 | 28.29525 | -81.44291 | 93 ft | 0 kts | 51° |
| 2026-05-05 01:10 | 28.29540 | -81.44276 | 92 ft | 10 kts | 39° |
| 2026-05-05 01:11 | 28.29602 | -81.44195 | 92 ft | 15 kts | 65° |
| 2026-05-05 01:11 | 28.29485 | -81.44069 | 88 ft | 46 kts | 149° |
| 2026-05-05 01:11 | 28.29150 | -81.43840 | 258 ft | 59 kts | 146° |
| 2026-05-05 01:11 | 28.28778 | -81.43597 | 471 ft | 69 kts | 143° |
| 2026-05-05 01:12 | 28.28313 | -81.43365 | 761 ft | 80 kts | 161° |
| 2026-05-05 01:12 | 28.27772 | -81.43714 | 851 ft | 112 kts | 232° |
| 2026-05-05 01:12 | 28.27599 | -81.44596 | 1003 ft | 124 kts | 286° |
| 2026-05-05 01:12 | 28.27922 | -81.45434 | 1250 ft | 119 kts | 306° |
| 2026-05-05 01:13 | 28.28391 | -81.46184 | 1247 ft | 115 kts | 314° |
| 2026-05-05 01:13 | 28.28914 | -81.46843 | 1181 ft | 107 kts | 319° |
| 2026-05-05 01:13 | 28.29523 | -81.46949 | 1026 ft | 91 kts | 38° |
| 2026-05-05 01:13 | 28.29972 | -81.46513 | 974 ft | 79 kts | 53° |
| 2026-05-05 01:14 | 28.30309 | -81.46032 | 848 ft | 76 kts | 58° |
| 2026-05-05 01:14 | 28.30561 | -81.45545 | 785 ft | 68 kts | 69° |
| 2026-05-05 01:14 | 28.30488 | -81.45039 | 581 ft | 71 kts | 116° |
| 2026-05-05 01:14 | 28.30171 | -81.44603 | 352 ft | 74 kts | 136° |
| 2026-05-05 01:15 | 28.29774 | -81.44278 | 147 ft | 66 kts | 138° |
| 2026-05-05 01:15 | 28.29436 | -81.44033 | 89 ft | 45 kts | 147° |
| 2026-05-05 01:15 | 28.29145 | -81.43820 | 146 ft | 61 kts | 147° |
| 2026-05-05 01:15 | 28.28729 | -81.43580 | 353 ft | 76 kts | 148° |
| 2026-05-05 01:16 | 28.28201 | -81.43378 | 663 ft | 85 kts | 160° |
| 2026-05-05 01:16 | 28.27575 | -81.43648 | 757 ft | 119 kts | 224° |
| 2026-05-05 01:16 | 28.27315 | -81.44528 | 861 ft | 121 kts | 278° |
| 2026-05-05 01:16 | 28.27766 | -81.45264 | 975 ft | 114 kts | 330° |
| 2026-05-05 01:17 | 28.28473 | -81.45594 | 1050 ft | 111 kts | 348° |
| 2026-05-05 01:17 | 28.29219 | -81.45837 | 1093 ft | 113 kts | 353° |
| 2026-05-05 01:17 | 28.29974 | -81.46064 | 1123 ft | 112 kts | 351° |
| 2026-05-05 01:17 | 28.30697 | -81.46177 | 1072 ft | 94 kts | 21° |
| 2026-05-05 01:18 | 28.31083 | -81.45717 | 891 ft | 77 kts | 79° |
| 2026-05-05 01:18 | 28.30975 | -81.45152 | 577 ft | 84 kts | 127° |
| 2026-05-05 01:18 | 28.30480 | -81.44773 | 354 ft | 84 kts | 142° |
| 2026-05-05 01:18 | 28.30018 | -81.44448 | 215 ft | 69 kts | 142° |
| 2026-05-05 01:19 | 28.29666 | -81.44199 | 107 ft | 53 kts | 139° |
| 2026-05-05 01:19 | 28.29402 | -81.44010 | 89 ft | 35 kts | 147° |
| 2026-05-05 01:19 | 28.29112 | -81.43802 | 149 ft | 63 kts | 142° |
| 2026-05-05 01:19 | 28.28719 | -81.43554 | 400 ft | 69 kts | 141° |
| 2026-05-05 01:20 | 28.28251 | -81.43270 | 700 ft | 80 kts | 152° |
| 2026-05-05 01:20 | 28.27651 | -81.43369 | 842 ft | 110 kts | 210° |
| 2026-05-05 01:20 | 28.27230 | -81.44205 | 936 ft | 132 kts | 265° |
| 2026-05-05 01:20 | 28.27632 | -81.45114 | 1058 ft | 136 kts | 328° |
| 2026-05-05 01:21 | 28.28384 | -81.45710 | 1045 ft | 120 kts | 333° |
| 2026-05-05 01:21 | 28.29038 | -81.46190 | 999 ft | 104 kts | 336° |
| 2026-05-05 01:21 | 28.29674 | -81.46557 | 973 ft | 105 kts | 342° |
| 2026-05-05 01:21 | 28.30372 | -81.46824 | 985 ft | 104 kts | 4° |
| 2026-05-05 01:22 | 28.30918 | -81.46472 | 862 ft | 85 kts | 59° |
| 2026-05-05 01:22 | 28.31188 | -81.45892 | 665 ft | 85 kts | 68° |
| 2026-05-05 01:22 | 28.31076 | -81.45327 | 544 ft | 73 kts | 122° |
| 2026-05-05 01:22 | 28.30706 | -81.44959 | 396 ft | 68 kts | 135° |
| 2026-05-05 01:23 | 28.30360 | -81.44684 | 261 ft | 59 kts | 131° |
| 2026-05-05 01:23 | 28.30040 | -81.44473 | 190 ft | 49 kts | 135° |
| 2026-05-05 01:23 | 28.29726 | -81.44241 | 136 ft | 57 kts | 137° |
| 2026-05-05 01:23 | 28.29410 | -81.44020 | 90 ft | 45 kts | 139° |
| 2026-05-05 01:24 | 28.29153 | -81.43830 | 110 ft | 57 kts | 149° |
| 2026-05-05 01:24 | 28.28783 | -81.43571 | 327 ft | 63 kts | 144° |
| 2026-05-05 01:24 | 28.28375 | -81.43342 | 626 ft | 66 kts | 146° |
| 2026-05-05 01:24 | 28.27916 | -81.43606 | 749 ft | 96 kts | 236° |
| 2026-05-05 01:25 | 28.27755 | -81.44319 | 881 ft | 97 kts | 288° |
| 2026-05-05 01:25 | 28.28234 | -81.44859 | 884 ft | 103 kts | 328° |
| 2026-05-05 01:25 | 28.28798 | -81.45350 | 865 ft | 96 kts | 329° |
| 2026-05-05 01:25 | 28.29312 | -81.45727 | 838 ft | 82 kts | 333° |
| 2026-05-05 01:26 | 28.29797 | -81.45639 | 750 ft | 67 kts | 57° |
| 2026-05-05 01:26 | 28.29946 | -81.45146 | 533 ft | 65 kts | 77° |
| 2026-05-05 01:26 | 28.30000 | -81.44643 | 323 ft | 64 kts | 104° |
| 2026-05-05 01:26 | 28.29727 | -81.44256 | 152 ft | 63 kts | 135° |
| 2026-05-05 01:27 | 28.29411 | -81.44015 | 89 ft | 43 kts | 144° |
| 2026-05-05 01:27 | 28.29135 | -81.43815 | 130 ft | 59 kts | 147° |
| 2026-05-05 01:27 | 28.28765 | -81.43597 | 379 ft | 62 kts | 149° |
| 2026-05-05 01:27 | 28.28326 | -81.43453 | 649 ft | 70 kts | 154° |
| 2026-05-05 01:28 | 28.27746 | -81.43624 | 765 ft | 114 kts | 211° |
| 2026-05-05 01:28 | 28.27282 | -81.44404 | 846 ft | 124 kts | 259° |
| 2026-05-05 01:28 | 28.27595 | -81.45209 | 1062 ft | 107 kts | 324° |
| 2026-05-05 01:28 | 28.28198 | -81.45653 | 1015 ft | 99 kts | 342° |
| 2026-05-05 01:29 | 28.28779 | -81.45956 | 1018 ft | 88 kts | 345° |
| 2026-05-05 01:29 | 28.29366 | -81.45934 | 801 ft | 93 kts | 41° |
| 2026-05-05 01:29 | 28.29729 | -81.45310 | 594 ft | 98 kts | 65° |
| 2026-05-05 01:29 | 28.29929 | -81.44648 | 380 ft | 73 kts | 94° |
| 2026-05-05 01:30 | 28.29687 | -81.44220 | 126 ft | 63 kts | 140° |
| 2026-05-05 01:30 | 28.29388 | -81.43998 | 90 ft | 39 kts | 147° |
| 2026-05-05 01:30 | 28.29077 | -81.43772 | 159 ft | 65 kts | 150° |
| 2026-05-05 01:30 | 28.28661 | -81.43562 | 437 ft | 68 kts | 148° |
| 2026-05-05 01:31 | 28.28183 | -81.43370 | 716 ft | 78 kts | 159° |
| 2026-05-05 01:31 | 28.27620 | -81.43625 | 897 ft | 105 kts | 217° |
| 2026-05-05 01:31 | 28.27187 | -81.44391 | 1090 ft | 123 kts | 243° |
| 2026-05-05 01:31 | 28.27259 | -81.45341 | 1165 ft | 121 kts | 305° |
| 2026-05-05 01:32 | 28.27883 | -81.45782 | 1100 ft | 103 kts | 352° |
| 2026-05-05 01:32 | 28.28563 | -81.45910 | 1054 ft | 91 kts | 6° |
| 2026-05-05 01:32 | 28.29184 | -81.46015 | 1010 ft | 91 kts | 355° |
| 2026-05-05 01:32 | 28.29780 | -81.46108 | 969 ft | 80 kts | 3° |
| 2026-05-05 01:33 | 28.30232 | -81.45913 | 811 ft | 68 kts | 58° |
| 2026-05-05 01:33 | 28.30307 | -81.45365 | 609 ft | 76 kts | 90° |
| 2026-05-05 01:33 | 28.30220 | -81.44770 | 452 ft | 79 kts | 113° |
| 2026-05-05 01:33 | 28.29883 | -81.44370 | 241 ft | 66 kts | 137° |
| 2026-05-05 01:34 | 28.29540 | -81.44111 | 91 ft | 51 kts | 139° |
| 2026-05-05 01:34 | 28.29312 | -81.43945 | 90 ft | 34 kts | 146° |
| 2026-05-05 01:34 | 28.28992 | -81.43732 | 186 ft | 62 kts | 152° |
| 2026-05-05 01:34 | 28.28584 | -81.43462 | 422 ft | 70 kts | 142° |
| 2026-05-05 01:35 | 28.28205 | -81.43171 | 764 ft | 65 kts | 131° |
| 2026-05-05 01:35 | 28.27689 | -81.43240 | 837 ft | 100 kts | 215° |
| 2026-05-05 01:35 | 28.27322 | -81.43981 | 907 ft | 114 kts | 262° |
| 2026-05-05 01:35 | 28.27678 | -81.44738 | 873 ft | 111 kts | 334° |
| 2026-05-05 01:36 | 28.28299 | -81.45059 | 787 ft | 92 kts | 343° |
| 2026-05-05 01:36 | 28.28855 | -81.45353 | 706 ft | 84 kts | 345° |
| 2026-05-05 01:36 | 28.29389 | -81.45574 | 716 ft | 82 kts | 352° |
| 2026-05-05 01:36 | 28.29884 | -81.45434 | 580 ft | 72 kts | 56° |
| 2026-05-05 01:37 | 28.30038 | -81.44891 | 423 ft | 74 kts | 82° |
| 2026-05-05 01:37 | 28.29979 | -81.44536 | 294 ft | 64 kts | 113° |
| 2026-05-05 01:37 | 28.29587 | -81.44144 | 96 ft | 50 kts | 138° |
| 2026-05-05 01:37 | 28.29349 | -81.43973 | 90 ft | 33 kts | 150° |
| 2026-05-05 01:38 | 28.29016 | -81.43743 | 120 ft | 75 kts | 144° |
| 2026-05-05 01:38 | 28.28614 | -81.43471 | 511 ft | 62 kts | 142° |
| 2026-05-05 01:38 | 28.28152 | -81.43346 | 707 ft | 88 kts | 189° |
| 2026-05-05 01:38 | 28.27593 | -81.43918 | 807 ft | 122 kts | 232° |
| 2026-05-05 01:39 | 28.27520 | -81.44850 | 904 ft | 126 kts | 295° |
| 2026-05-05 01:39 | 28.28069 | -81.45560 | 979 ft | 113 kts | 329° |
| 2026-05-05 01:39 | 28.28732 | -81.45942 | 981 ft | 101 kts | 346° |
| 2026-05-05 01:39 | 28.29143 | -81.46113 | 961 ft | 90 kts | 348° |
| 2026-05-05 01:40 | 28.29722 | -81.46167 | 917 ft | 82 kts | 21° |
| 2026-05-05 01:40 | 28.30186 | -81.45816 | 761 ft | 82 kts | 54° |
| 2026-05-05 01:40 | 28.30370 | -81.45221 | 731 ft | 74 kts | 85° |
| 2026-05-05 01:40 | 28.30302 | -81.44652 | 505 ft | 79 kts | 119° |
| 2026-05-05 01:41 | 28.29809 | -81.44290 | 174 ft | 82 kts | 142° |
| 2026-05-05 01:41 | 28.29381 | -81.43998 | 106 ft | 60 kts | 141° |
| 2026-05-05 01:41 | 28.28995 | -81.43740 | 318 ft | 68 kts | 142° |
| 2026-05-05 01:41 | 28.28579 | -81.43469 | 624 ft | 66 kts | 141° |
| 2026-05-05 01:42 | 28.28102 | -81.43282 | 769 ft | 86 kts | 167° |
| 2026-05-05 01:42 | 28.27509 | -81.43430 | 792 ft | 93 kts | 205° |
| 2026-05-05 01:42 | 28.27111 | -81.44028 | 705 ft | 99 kts | 238° |
| 2026-05-05 01:42 | 28.27070 | -81.44780 | 607 ft | 100 kts | 299° |
| 2026-05-05 01:43 | 28.27527 | -81.45283 | 570 ft | 85 kts | 334° |
| 2026-05-05 01:43 | 28.28083 | -81.45578 | 610 ft | 87 kts | 345° |
| 2026-05-05 01:43 | 28.28647 | -81.45812 | 648 ft | 88 kts | 348° |
| 2026-05-05 01:43 | 28.29199 | -81.46065 | 795 ft | 86 kts | 345° |
| 2026-05-05 01:44 | 28.29765 | -81.46126 | 782 ft | 78 kts | 31° |
| 2026-05-05 01:44 | 28.30095 | -81.45696 | 650 ft | 73 kts | 69° |
| 2026-05-05 01:44 | 28.30279 | -81.45157 | 524 ft | 70 kts | 76° |
| 2026-05-05 01:44 | 28.30237 | -81.44670 | 400 ft | 67 kts | 120° |
| 2026-05-05 01:45 | 28.29888 | -81.44360 | 214 ft | 59 kts | 141° |
| 2026-05-05 01:45 | 28.29573 | -81.44132 | 91 ft | 49 kts | 136° |
| 2026-05-05 01:45 | 28.29345 | -81.43968 | 90 ft | 30 kts | 148° |
| 2026-05-05 01:45 | 28.29199 | -81.43867 | 93 ft | 20 kts | 150° |
| 2026-05-05 01:46 | 28.29106 | -81.43877 | 95 ft | 13 kts | 237° |
| 2026-05-05 01:46 | 28.29084 | -81.43917 | 93 ft | 0 kts | 236° |
| 2026-05-05 01:46 | 28.29079 | -81.43926 | 94 ft | 5 kts | 239° |
| 2026-05-05 01:46 | 28.29048 | -81.43982 | 94 ft | 12 kts | 235° |
| 2026-05-05 01:47 | 28.29057 | -81.44081 | 91 ft | 14 kts | 277° |
| 2026-05-05 01:47 | 28.29071 | -81.44129 | 92 ft | 0 kts | 299° |